Historique des stations

Station météo de Saint-Pierre-de-Jards







Données météorologiques pour le 26/05/2022
Date
Heure
Températures Humidité Point de rosée Vitesse
du vent
Direction Rafales Windchill Pression Pluviométrie
Cumul
Date
Heure
Températures Humidité Point de rosée Vitesse
du vent
Direction Rafales Windchill Pression Pluviométrie
Cumul
26/05/2022 12:3517.2 °C77.0 %13.1 °C2 km/hNO4 km/h17.21027 hPa0.0 mm
26/05/2022 12:2017.2 °C78.0 %13.3 °C1 km/hONO2 km/h17.21027 hPa0.0 mm
26/05/2022 12:0517.0 °C78.0 %13.1 °C1 km/hO3 km/h17.01027 hPa0.0 mm
26/05/2022 11:0916.2 °C80.0 %12.7 °C1 km/hO2 km/h16.21026 hPa0.0 mm
26/05/2022 11:0516.7 °C80.0 %13.2 °C1 km/hO2 km/h16.71027 hPa0.0 mm
26/05/2022 11:0416.0 °C81.0 %12.7 °C1 km/hO2 km/h16.01026 hPa0.0 mm
26/05/2022 11:0017.3 °C78.0 %13.4 °C1 km/hO3 km/h17.21027 hPa0.0 mm
26/05/2022 10:0915.4 °C83.0 %12.5 °C1 km/hONO2 km/h15.41026 hPa0.0 mm
26/05/2022 10:0415.2 °C84.0 %12.5 °C1 km/hO3 km/h15.21026 hPa0.0 mm
26/05/2022 09:0914.7 °C84.0 %12.0 °C1 km/hNNO3 km/h14.71026 hPa0.0 mm
26/05/2022 09:0414.6 °C84.0 %11.9 °C1 km/hNNO2 km/h14.61026 hPa0.0 mm
26/05/2022 08:0914.4 °C84.0 %11.7 °C1 km/hNO2 km/h14.41026 hPa0.0 mm
26/05/2022 08:0814.2 °C84.0 %11.5 °C1 km/hONO2 km/h14.21025 hPa0.0 mm
26/05/2022 08:0414.3 °C84.0 %11.6 °C1 km/hNO2 km/h14.31025 hPa0.0 mm
26/05/2022 08:0314.1 °C84.0 %11.4 °C1 km/hONO3 km/h13.81025 hPa0.0 mm
26/05/2022 07:0813.9 °C84.0 %11.2 °C1 km/hONO2 km/h13.91025 hPa0.0 mm
26/05/2022 07:0313.8 °C84.0 %11.1 °C1 km/hONO3 km/h13.81025 hPa0.0 mm
26/05/2022 06:0813.8 °C84.0 %11.1 °C1 km/hO3 km/h13.81024 hPa0.0 mm
26/05/2022 06:0313.8 °C84.0 %11.1 °C2 km/hO4 km/h13.71024 hPa0.0 mm
26/05/2022 05:0813.9 °C83.0 %11.1 °C2 km/hO3 km/h13.91024 hPa0.0 mm
26/05/2022 05:0714.1 °C83.0 %11.3 °C2 km/hONO5 km/h14.11024 hPa0.0 mm
26/05/2022 05:0214.1 °C83.0 %11.3 °C2 km/hONO4 km/h14.11024 hPa0.0 mm
26/05/2022 04:0714.4 °C82.0 %11.4 °C2 km/hO5 km/h13.41024 hPa0.0 mm
26/05/2022 04:0214.5 °C82.0 %11.5 °C2 km/hO4 km/h14.51024 hPa0.0 mm
26/05/2022 03:0714.6 °C81.0 %11.4 °C2 km/hONO5 km/h14.41024 hPa0.0 mm
26/05/2022 03:0214.7 °C81.0 %11.5 °C2 km/hONO4 km/h14.71024 hPa0.0 mm
26/05/2022 03:0114.3 °C82.0 %11.3 °C2 km/hO5 km/h14.31024 hPa0.0 mm
26/05/2022 02:0614.3 °C81.0 %11.1 °C2 km/hO3 km/h14.31024 hPa0.0 mm
26/05/2022 02:0114.1 °C81.0 %10.9 °C1 km/hO3 km/h14.11024 hPa0.0 mm
26/05/2022 01:4614.4 °C80.0 %11.0 °C1 km/hO3 km/h14.41024 hPa0.0 mm
26/05/2022 01:3114.4 °C80.0 %11.0 °C1 km/hO4 km/h13.51024 hPa0.0 mm
26/05/2022 01:1614.1 °C82.0 %11.1 °C2 km/hO4 km/h13.81024 hPa0.0 mm
26/05/2022 01:0114.6 °C81.0 %11.4 °C2 km/hOSO2 km/h14.61024 hPa0.0 mm
26/05/2022 00:4615.2 °C78.0 %11.4 °C1 km/hO2 km/h15.21024 hPa0.0 mm
26/05/2022 00:3015.5 °C76.0 %11.3 °C1 km/hO3 km/h15.51024 hPa0.0 mm
26/05/2022 00:1515.5 °C75.0 %11.1 °C2 km/hO3 km/h15.21023 hPa0.0 mm
26/05/2022 00:0515.4 °C76.0 %11.2 °C1 km/hO3 km/h15.41023 hPa0.0 mm


Minima :

Température : 13.8 °C
Humidité : 75.0 %
Point de rosée : 10.9 °C
Vent moyen : 1 km/h
Windchill : 13.4
Pression atm. : 1023 hPa
Maxima :

Température : 17.3 °C
Humidité : 84.0 %
Point de rosée : 13.4 °C
Vent moyen : 2 km/h
Windchill : 17.2
Pression atm. : 1027 hPa
Rafales max : 5 km/h
Cumul de pluie sur 24H : 0 mm

Saint-Pierre-de-Jards est une commune du département Indre (36).
La station météorologique du réseau de l'association la plus proche de Saint-Pierre-de-Jards est celle de Luçay-le-Libre



Icône Facebook Association Météo Centre Icône Twitter Association Météo Centre Icône Chaîne Youtube Association Météo Centre Icône contact Association Météo Centre Icône Insta Association Météo Centre